Time;durP1;ratioP1;P1;durP2;ratioP2;P2;SDS_P1;SDS_P2;PMS_P1;PMS_P2;Temp;Humidity;BMP_temperature;BMP_pressure;BME280_temperature;BME280_humidity;BME280_pressure;Samples;Min_cycle;Max_cycle;Signal;HPM_P1;HPM_P2
2021/12/20 00:00:22;;;;;;;37.53;6.60;;;;;;;;;;5091518;28;20048;-68
2021/12/20 00:02:50;;;;;;;42.43;6.07;;;;;;;;;;5091090;28;20474;-68
2021/12/20 00:05:18;;;;;;;46.70;5.73;;;;;;;;;;5073202;28;20382;-68
2021/12/20 00:07:44;;;;;;;40.80;6.10;;;;;;;;;;5091395;28;20422;-69
2021/12/20 00:10:11;;;;;;;40.20;7.03;;;;;;;;;;5090437;28;20036;-69
2021/12/20 00:12:37;;;;;;;34.77;5.40;;;;;;;;;;5091275;28;20055;-69
2021/12/20 00:15:03;;;;;;;36.17;7.00;;;;;;;;;;5091299;28;20044;-69
2021/12/20 00:17:29;;;;;;;40.77;5.10;;;;;;;;;;5058170;28;20063;-68
2021/12/20 00:19:55;;;;;;;48.53;6.70;;;;;;;;;;5052917;28;20429;-69
2021/12/20 00:22:21;;;;;;;30.10;5.07;;;;;;;;;;5053275;28;20053;-68
2021/12/20 00:24:47;;;;;;;36.70;6.47;;;;;;;;;;5086215;28;20059;-68
2021/12/20 00:27:19;;;;;;;34.40;7.13;;;;;;;;;;5090427;28;20075;-69
2021/12/20 00:29:45;;;;;;;30.23;5.03;;;;;;;;;;5090405;28;20140;-69
2021/12/20 00:32:11;;;;;;;44.07;6.50;;;;;;;;;;5072594;28;20044;-69
2021/12/20 00:34:37;;;;;;;42.00;7.03;;;;;;;;;;5073090;28;20048;-68
2021/12/20 00:37:04;;;;;;;40.47;6.37;;;;;;;;;;5072054;28;20048;-69
2021/12/20 00:42:15;;;;;;;32.00;5.97;;;;;;;;;;5069660;28;20084;-69
2021/12/20 00:44:41;;;;;;;35.97;5.13;;;;;;;;;;5070842;28;20052;-68
2021/12/20 00:47:07;;;;;;;42.40;6.67;;;;;;;;;;5071979;28;20498;-69
2021/12/20 00:49:33;;;;;;;47.23;6.37;;;;;;;;;;5090360;28;20093;-69
2021/12/20 00:51:59;;;;;;;33.47;5.37;;;;;;;;;;5072108;28;20048;-69
2021/12/20 00:54:25;;;;;;;31.10;5.70;;;;;;;;;;5072169;28;20137;-69
2021/12/20 00:56:51;;;;;;;35.27;5.27;;;;;;;;;;5089547;28;20036;-68
2021/12/20 00:59:17;;;;;;;49.93;6.97;;;;;;;;;;5090234;28;20040;-69
2021/12/20 01:01:43;;;;;;;35.10;5.30;;;;;;;;;;5090267;28;20040;-69
2021/12/20 01:04:09;;;;;;;32.17;5.03;;;;;;;;;;5090490;28;20040;-69
2021/12/20 01:06:35;;;;;;;38.37;5.03;;;;;;;;;;5089546;28;20136;-68
2021/12/20 01:09:02;;;;;;;40.17;6.70;;;;;;;;;;5089782;28;20412;-69
2021/12/20 01:11:29;;;;;;;43.40;6.97;;;;;;;;;;5072300;28;20073;-68
2021/12/20 01:13:57;;;;;;;38.80;6.13;;;;;;;;;;5090177;28;20390;-68
2021/12/20 01:16:30;;;;;;;43.30;6.13;;;;;;;;;;5071327;28;20123;-68
2021/12/20 01:18:57;;;;;;;29.48;5.32;;;;;;;;;;5072183;28;20405;-68
2021/12/20 01:21:23;;;;;;;30.23;4.97;;;;;;;;;;5089813;28;20071;-68
2021/12/20 01:23:49;;;;;;;33.63;4.60;;;;;;;;;;5088756;28;20485;-68
2021/12/20 01:26:15;;;;;;;39.37;6.10;;;;;;;;;;5086553;28;20123;-68
2021/12/20 01:28:43;;;;;;;35.30;4.97;;;;;;;;;;5069100;28;20094;-68
2021/12/20 01:31:09;;;;;;;44.80;5.80;;;;;;;;;;5058650;28;20051;-68
2021/12/20 01:33:35;;;;;;;32.87;5.53;;;;;;;;;;5089582;28;20051;-68
2021/12/20 01:36:01;;;;;;;31.13;4.57;;;;;;;;;;5085077;28;20120;-69
2021/12/20 01:38:27;;;;;;;31.30;5.43;;;;;;;;;;5089810;28;20052;-68
2021/12/20 01:40:53;;;;;;;41.90;7.73;;;;;;;;;;5089378;28;20051;-68
2021/12/20 01:43:19;;;;;;;39.47;8.27;;;;;;;;;;5089508;28;20044;-68
2021/12/20 01:45:48;;;;;;;36.23;6.47;;;;;;;;;;5089645;28;20048;-68
2021/12/20 01:48:17;;;;;;;35.80;6.30;;;;;;;;;;5089365;28;20051;-68
2021/12/20 01:53:11;;;;;;;36.73;6.30;;;;;;;;;;5071112;28;20063;-68
2021/12/20 01:55:37;;;;;;;34.60;6.63;;;;;;;;;;5089484;28;20100;-69
2021/12/20 01:58:03;;;;;;;27.83;4.90;;;;;;;;;;5089631;28;21039;-68
2021/12/20 02:00:30;;;;;;;29.63;4.80;;;;;;;;;;5089615;28;20055;-68
2021/12/20 02:03:01;;;;;;;35.90;6.37;;;;;;;;;;5089387;28;20516;-68
2021/12/20 02:08:16;;;;;;;34.23;6.67;;;;;;;;;;5089374;28;20131;-68
2021/12/20 02:10:44;;;;;;;36.50;5.97;;;;;;;;;;5085656;28;20049;-68
2021/12/20 02:13:11;;;;;;;32.13;4.63;;;;;;;;;;5068624;28;20131;-68
2021/12/20 02:15:37;;;;;;;31.50;7.80;;;;;;;;;;5068711;28;20045;-68
2021/12/20 02:18:04;;;;;;;28.40;5.53;;;;;;;;;;5069975;28;20048;-68
2021/12/20 02:20:31;;;;;;;32.87;5.50;;;;;;;;;;5071209;28;20413;-69
2021/12/20 02:22:58;;;;;;;30.87;5.17;;;;;;;;;;5069858;28;20200;-69
2021/12/20 02:25:24;;;;;;;34.03;5.30;;;;;;;;;;5088813;28;20108;-69
2021/12/20 02:27:51;;;;;;;39.53;7.80;;;;;;;;;;5088410;28;20517;-68
2021/12/20 02:38:26;;;;;;;27.53;5.47;;;;;;;;;;5068794;28;20048;-68
2021/12/20 02:41:00;;;;;;;30.63;5.17;;;;;;;;;;5072258;28;20115;-68
2021/12/20 02:43:28;;;;;;;21.63;4.10;;;;;;;;;;5068113;28;20048;-68
2021/12/20 02:45:58;;;;;;;31.23;4.97;;;;;;;;;;5050735;28;20190;-69
2021/12/20 02:48:24;;;;;;;24.33;5.07;;;;;;;;;;5069010;28;20119;-69
2021/12/20 02:50:53;;;;;;;31.90;5.73;;;;;;;;;;5085834;28;20462;-69
2021/12/20 02:53:19;;;;;;;28.97;5.23;;;;;;;;;;5068178;28;20041;-68
2021/12/20 02:55:46;;;;;;;33.07;4.50;;;;;;;;;;5074874;28;20036;-68
2021/12/20 02:58:12;;;;;;;38.83;5.37;;;;;;;;;;5069960;28;20044;-68
2021/12/20 03:00:38;;;;;;;35.07;6.23;;;;;;;;;;5069764;28;20052;-68
2021/12/20 03:03:04;;;;;;;36.37;4.33;;;;;;;;;;5068034;28;20045;-68
2021/12/20 03:05:30;;;;;;;38.00;5.20;;;;;;;;;;5050743;28;20045;-68
2021/12/20 03:07:57;;;;;;;33.87;4.67;;;;;;;;;;5068401;28;20551;-68
2021/12/20 03:10:25;;;;;;;25.23;4.57;;;;;;;;;;5083847;28;20044;-68
2021/12/20 03:12:51;;;;;;;38.47;4.47;;;;;;;;;;5070210;28;20127;-68
2021/12/20 03:15:22;;;;;;;39.23;5.23;;;;;;;;;;5079644;28;20040;-68
2021/12/20 03:17:52;;;;;;;34.60;5.57;;;;;;;;;;5069200;28;20421;-69
2021/12/20 03:20:19;;;;;;;41.33;6.40;;;;;;;;;;5074151;28;20214;-68
2021/12/20 03:22:45;;;;;;;34.47;4.43;;;;;;;;;;5068162;28;20047;-68
2021/12/20 03:25:11;;;;;;;35.33;4.20;;;;;;;;;;5067630;28;20406;-68
2021/12/20 03:27:37;;;;;;;36.50;4.77;;;;;;;;;;5060031;28;20044;-68
2021/12/20 03:30:05;;;;;;;31.47;3.70;;;;;;;;;;5059550;28;20482;-68
2021/12/20 03:32:31;;;;;;;31.63;4.20;;;;;;;;;;5069088;28;20044;-68
2021/12/20 03:34:57;;;;;;;35.27;5.77;;;;;;;;;;5073035;28;20044;-68
2021/12/20 03:37:23;;;;;;;29.33;4.83;;;;;;;;;;5092340;28;20055;-68
2021/12/20 03:39:49;;;;;;;33.00;3.60;;;;;;;;;;5091765;28;20036;-68
2021/12/20 03:42:15;;;;;;;37.03;4.03;;;;;;;;;;5091551;28;20048;-69
2021/12/20 03:44:44;;;;;;;24.93;4.03;;;;;;;;;;5092016;28;20036;-69
2021/12/20 03:47:11;;;;;;;21.77;4.07;;;;;;;;;;5073108;28;20052;-68
2021/12/20 03:49:37;;;;;;;35.00;6.00;;;;;;;;;;5091458;28;20130;-69
2021/12/20 03:52:07;;;;;;;22.47;3.63;;;;;;;;;;5091744;28;20406;-69
2021/12/20 03:54:33;;;;;;;27.43;4.53;;;;;;;;;;5073556;28;20048;-68
2021/12/20 03:56:59;;;;;;;19.17;3.17;;;;;;;;;;5091122;28;20036;-68
2021/12/20 03:59:28;;;;;;;23.43;4.70;;;;;;;;;;5091264;28;20070;-69
2021/12/20 04:01:54;;;;;;;31.10;4.20;;;;;;;;;;5062635;28;20094;-69
2021/12/20 04:04:20;;;;;;;21.40;4.47;;;;;;;;;;5079301;28;20426;-69
2021/12/20 04:06:46;;;;;;;25.10;4.23;;;;;;;;;;5073530;28;20127;-69
2021/12/20 04:09:12;;;;;;;21.33;3.30;;;;;;;;;;5073349;28;20651;-69
2021/12/20 04:11:38;;;;;;;24.37;4.30;;;;;;;;;;5090956;28;20055;-69
2021/12/20 04:14:04;;;;;;;29.20;4.17;;;;;;;;;;5091819;28;20051;-69
2021/12/20 04:16:30;;;;;;;24.30;4.07;;;;;;;;;;5091423;28;20060;-69
2021/12/20 04:18:57;;;;;;;23.57;5.00;;;;;;;;;;5071817;28;20472;-69
2021/12/20 04:21:23;;;;;;;23.70;2.77;;;;;;;;;;5087892;28;20041;-70
2021/12/20 04:23:49;;;;;;;26.40;3.17;;;;;;;;;;5089099;28;20477;-68
2021/12/20 04:26:15;;;;;;;28.43;3.27;;;;;;;;;;5056260;28;20089;-68
2021/12/20 04:28:41;;;;;;;35.83;4.87;;;;;;;;;;5083435;28;20040;-68
2021/12/20 04:31:08;;;;;;;30.97;4.17;;;;;;;;;;5079820;28;20139;-68
2021/12/20 04:33:34;;;;;;;27.40;3.67;;;;;;;;;;5073124;28;20131;-69
2021/12/20 04:36:00;;;;;;;33.33;4.80;;;;;;;;;;5073076;28;20465;-68
2021/12/20 04:38:29;;;;;;;25.30;4.33;;;;;;;;;;5090792;28;20392;-69
2021/12/20 04:40:55;;;;;;;22.40;3.43;;;;;;;;;;5071666;28;20052;-68
2021/12/20 04:43:21;;;;;;;20.67;3.17;;;;;;;;;;5085306;28;20124;-68
2021/12/20 04:45:47;;;;;;;21.27;3.53;;;;;;;;;;5088608;28;20134;-68
2021/12/20 04:48:13;;;;;;;23.77;4.13;;;;;;;;;;5090348;28;20075;-69
2021/12/20 04:50:39;;;;;;;25.07;3.87;;;;;;;;;;5072887;28;20144;-69
2021/12/20 04:53:05;;;;;;;29.90;4.00;;;;;;;;;;5072138;28;20040;-69
2021/12/20 04:55:32;;;;;;;18.60;3.33;;;;;;;;;;5054262;28;20414;-68
2021/12/20 04:57:59;;;;;;;19.97;3.43;;;;;;;;;;5035799;28;20465;-69
2021/12/20 05:00:26;;;;;;;20.23;3.73;;;;;;;;;;5055112;28;20465;-69
2021/12/20 05:02:52;;;;;;;37.67;4.17;;;;;;;;;;5071187;28;20055;-69
2021/12/20 05:05:21;;;;;;;22.60;3.27;;;;;;;;;;5072197;28;20083;-69
2021/12/20 05:07:48;;;;;;;22.40;4.00;;;;;;;;;;5072278;28;20062;-68
2021/12/20 05:10:25;;;;;;;17.63;3.70;;;;;;;;;;5071343;28;20047;-68
2021/12/20 05:12:51;;;;;;;27.00;4.83;;;;;;;;;;5090178;28;20054;-68
2021/12/20 05:15:17;;;;;;;16.33;3.63;;;;;;;;;;5072339;28;20081;-69
2021/12/20 05:17:43;;;;;;;26.03;4.27;;;;;;;;;;5071997;28;20552;-69
2021/12/20 05:20:10;;;;;;;32.17;4.93;;;;;;;;;;5071938;28;20080;-68
2021/12/20 05:22:36;;;;;;;30.00;4.27;;;;;;;;;;5090254;28;20047;-69
2021/12/20 05:25:02;;;;;;;25.70;4.97;;;;;;;;;;5089576;28;20044;-69
2021/12/20 05:27:28;;;;;;;36.80;6.07;;;;;;;;;;5089632;28;20058;-69
2021/12/20 05:29:54;;;;;;;25.97;4.00;;;;;;;;;;5070790;28;20048;-68
2021/12/20 05:32:20;;;;;;;29.70;4.10;;;;;;;;;;5067424;28;20119;-68
2021/12/20 05:34:47;;;;;;;29.90;4.20;;;;;;;;;;5088713;28;20101;-68
2021/12/20 05:37:13;;;;;;;25.53;4.20;;;;;;;;;;5084454;28;20152;-69
2021/12/20 05:39:41;;;;;;;40.73;7.60;;;;;;;;;;5087608;28;20048;-68
2021/12/20 05:42:08;;;;;;;35.53;6.60;;;;;;;;;;5065148;28;20036;-69
2021/12/20 05:44:34;;;;;;;25.67;4.87;;;;;;;;;;5086805;28;20047;-68
2021/12/20 05:47:00;;;;;;;30.83;4.67;;;;;;;;;;5065262;28;20383;-68
2021/12/20 05:49:26;;;;;;;28.13;4.70;;;;;;;;;;5068006;28;20849;-69
2021/12/20 05:51:52;;;;;;;37.00;4.10;;;;;;;;;;5063057;28;20048;-69
2021/12/20 05:54:18;;;;;;;26.03;3.53;;;;;;;;;;5064886;28;20081;-68
2021/12/20 05:56:44;;;;;;;21.93;4.77;;;;;;;;;;5068145;28;20075;-69
2021/12/20 05:59:10;;;;;;;32.47;5.10;;;;;;;;;;5077539;28;20068;-69
2021/12/20 06:01:36;;;;;;;33.77;3.90;;;;;;;;;;5051624;28;20123;-69
2021/12/20 06:04:02;;;;;;;23.53;4.37;;;;;;;;;;5069844;28;20128;-69
2021/12/20 06:06:30;;;;;;;25.30;3.60;;;;;;;;;;5060994;28;20552;-69
2021/12/20 06:08:56;;;;;;;22.87;3.60;;;;;;;;;;5064642;28;20459;-68
2021/12/20 06:11:23;;;;;;;36.70;4.27;;;;;;;;;;5086372;28;20044;-69
2021/12/20 06:13:49;;;;;;;23.37;4.70;;;;;;;;;;5087175;28;20138;-69
2021/12/20 06:16:15;;;;;;;21.87;3.80;;;;;;;;;;5084436;28;20036;-69
2021/12/20 06:18:41;;;;;;;34.20;3.30;;;;;;;;;;5063901;28;20056;-69
2021/12/20 06:21:07;;;;;;;27.10;3.63;;;;;;;;;;5050231;28;20131;-68
2021/12/20 06:23:34;;;;;;;19.77;2.87;;;;;;;;;;5069166;28;20044;-68
2021/12/20 06:26:00;;;;;;;27.17;4.10;;;;;;;;;;5067051;28;20880;-68
2021/12/20 06:28:26;;;;;;;21.07;4.10;;;;;;;;;;5068694;28;20055;-68
2021/12/20 06:30:52;;;;;;;27.20;4.63;;;;;;;;;;5081036;28;20055;-68
2021/12/20 06:33:18;;;;;;;37.53;6.93;;;;;;;;;;5055845;28;21191;-68
2021/12/20 06:35:45;;;;;;;37.40;4.93;;;;;;;;;;5066709;28;20482;-68
2021/12/20 06:38:18;;;;;;;30.87;4.37;;;;;;;;;;5050984;28;20291;-68
2021/12/20 06:40:44;;;;;;;27.10;3.80;;;;;;;;;;5067023;28;20294;-68
2021/12/20 06:43:10;;;;;;;39.00;4.23;;;;;;;;;;5068671;28;20286;-68
2021/12/20 06:45:36;;;;;;;23.17;3.47;;;;;;;;;;5067958;28;20290;-68
2021/12/20 06:48:02;;;;;;;33.47;3.73;;;;;;;;;;5088091;28;20279;-68
2021/12/20 06:50:28;;;;;;;25.57;3.73;;;;;;;;;;5088847;28;20652;-68
2021/12/20 06:52:55;;;;;;;28.90;3.90;;;;;;;;;;5083130;28;20795;-68
2021/12/20 06:55:21;;;;;;;26.00;4.20;;;;;;;;;;5086798;28;20290;-68
2021/12/20 06:57:47;;;;;;;16.03;2.40;;;;;;;;;;5068536;28;20282;-68
2021/12/20 07:00:13;;;;;;;15.73;2.27;;;;;;;;;;5086411;28;20384;-69
2021/12/20 07:02:39;;;;;;;25.67;3.50;;;;;;;;;;5067578;28;20391;-69
2021/12/20 07:05:06;;;;;;;17.67;2.53;;;;;;;;;;5067166;28;20282;-68
2021/12/20 07:07:32;;;;;;;15.80;2.77;;;;;;;;;;5088203;28;20371;-68
2021/12/20 07:09:58;;;;;;;30.27;3.30;;;;;;;;;;5073773;28;20296;-69
2021/12/20 07:12:24;;;;;;;29.70;3.77;;;;;;;;;;5090630;28;20331;-68
2021/12/20 07:14:50;;;;;;;43.70;4.43;;;;;;;;;;5046753;28;20305;-68
2021/12/20 07:17:17;;;;;;;21.70;3.27;;;;;;;;;;5072364;28;20299;-68
2021/12/20 07:19:43;;;;;;;21.77;3.13;;;;;;;;;;5071360;28;20697;-68
2021/12/20 07:22:09;;;;;;;25.20;3.37;;;;;;;;;;5055089;28;20295;-69
2021/12/20 07:24:35;;;;;;;32.57;3.73;;;;;;;;;;5071387;28;20279;-69
2021/12/20 07:27:01;;;;;;;24.87;3.80;;;;;;;;;;5057603;28;20048;-69
2021/12/20 07:29:27;;;;;;;28.17;3.60;;;;;;;;;;5069303;28;20306;-69
2021/12/20 07:31:53;;;;;;;26.77;3.93;;;;;;;;;;5056314;28;20318;-69
2021/12/20 07:34:19;;;;;;;26.80;4.00;;;;;;;;;;5071650;28;20090;-69
2021/12/20 07:36:45;;;;;;;26.80;4.10;;;;;;;;;;5062320;28;20295;-70
2021/12/20 07:39:11;;;;;;;39.53;5.40;;;;;;;;;;5072578;28;20523;-69
2021/12/20 07:41:37;;;;;;;20.70;3.57;;;;;;;;;;5073401;28;20290;-70
2021/12/20 07:44:04;;;;;;;25.13;4.07;;;;;;;;;;5055555;28;20050;-69
2021/12/20 07:46:30;;;;;;;31.73;4.80;;;;;;;;;;5071104;28;20290;-69
2021/12/20 07:48:57;;;;;;;28.43;6.50;;;;;;;;;;5063847;28;20287;-69
2021/12/20 07:51:23;;;;;;;18.43;3.90;;;;;;;;;;5060809;28;20298;-69
2021/12/20 07:53:49;;;;;;;20.37;4.57;;;;;;;;;;5090177;28;20472;-69
2021/12/20 07:56:17;;;;;;;31.37;5.00;;;;;;;;;;5070329;28;20297;-69
2021/12/20 07:58:43;;;;;;;25.10;4.07;;;;;;;;;;5065453;28;20286;-69
2021/12/20 08:01:10;;;;;;;22.23;4.00;;;;;;;;;;5077134;28;20651;-69
2021/12/20 08:03:38;;;;;;;24.17;4.43;;;;;;;;;;5074425;28;20821;-69
2021/12/20 08:06:04;;;;;;;24.30;4.33;;;;;;;;;;5089448;28;20340;-69
2021/12/20 08:08:30;;;;;;;24.80;2.87;;;;;;;;;;5049218;28;20338;-69
2021/12/20 08:10:57;;;;;;;19.87;4.17;;;;;;;;;;5054152;28;20314;-68
2021/12/20 08:13:23;;;;;;;26.87;4.57;;;;;;;;;;5063850;28;20318;-69
2021/12/20 08:15:49;;;;;;;30.17;4.80;;;;;;;;;;5064427;28;20311;-68
2021/12/20 08:18:15;;;;;;;28.23;4.93;;;;;;;;;;5067115;28;20286;-69
2021/12/20 08:20:41;;;;;;;27.47;3.80;;;;;;;;;;5070932;28;20292;-69
2021/12/20 08:23:07;;;;;;;23.93;4.87;;;;;;;;;;5069962;28;20310;-69
2021/12/20 08:25:36;;;;;;;18.07;5.10;;;;;;;;;;5069049;28;20394;-69
2021/12/20 08:28:03;;;;;;;28.63;5.30;;;;;;;;;;5087968;28;20282;-69
2021/12/20 08:30:29;;;;;;;23.57;4.80;;;;;;;;;;5088322;28;20301;-68
2021/12/20 08:32:55;;;;;;;28.43;5.53;;;;;;;;;;5052850;28;20402;-69
2021/12/20 08:35:21;;;;;;;19.50;4.13;;;;;;;;;;5060328;28;20365;-69
2021/12/20 08:37:47;;;;;;;20.07;4.27;;;;;;;;;;5080008;28;20294;-69
2021/12/20 08:40:14;;;;;;;23.63;4.40;;;;;;;;;;5081698;28;20310;-69
2021/12/20 08:42:41;;;;;;;15.47;3.70;;;;;;;;;;5057908;28;20325;-69
2021/12/20 08:45:08;;;;;;;21.43;3.50;;;;;;;;;;5089531;28;20770;-69
2021/12/20 08:47:34;;;;;;;18.50;3.37;;;;;;;;;;5071028;28;20290;-69
2021/12/20 08:50:01;;;;;;;21.23;4.37;;;;;;;;;;5089391;28;20293;-69
2021/12/20 08:52:27;;;;;;;26.67;5.50;;;;;;;;;;5079872;28;20291;-69
2021/12/20 08:54:53;;;;;;;30.83;5.83;;;;;;;;;;5081170;28;20352;-69
2021/12/20 08:57:19;;;;;;;27.43;4.90;;;;;;;;;;5072441;28;20290;-68
2021/12/20 08:59:45;;;;;;;27.00;4.23;;;;;;;;;;5071705;28;20361;-68
2021/12/20 09:02:12;;;;;;;14.07;3.27;;;;;;;;;;5071574;28;20362;-69
2021/12/20 09:04:38;;;;;;;25.40;4.23;;;;;;;;;;5056808;28;20147;-69
2021/12/20 09:07:05;;;;;;;19.07;5.67;;;;;;;;;;5042279;28;20310;-69
2021/12/20 09:09:37;;;;;;;26.07;5.27;;;;;;;;;;5071266;28;20294;-69
2021/12/20 09:12:04;;;;;;;21.23;4.53;;;;;;;;;;5066644;28;20295;-69
2021/12/20 09:14:33;;;;;;;26.47;4.90;;;;;;;;;;5087837;28;20309;-68
2021/12/20 09:16:59;;;;;;;21.43;4.40;;;;;;;;;;5069383;28;20294;-68
2021/12/20 09:19:25;;;;;;;21.87;5.67;;;;;;;;;;5069625;28;20723;-69
2021/12/20 09:21:51;;;;;;;28.30;6.13;;;;;;;;;;5086174;28;20361;-69
2021/12/20 09:24:17;;;;;;;34.60;7.47;;;;;;;;;;5063869;28;20055;-69
2021/12/20 09:26:43;;;;;;;40.23;9.53;;;;;;;;;;5068538;28;20292;-69
2021/12/20 09:29:09;;;;;;;22.50;6.37;;;;;;;;;;5063600;28;20382;-69
2021/12/20 09:31:35;;;;;;;31.37;10.27;;;;;;;;;;5048760;28;20054;-69
2021/12/20 09:34:01;;;;;;;31.23;8.63;;;;;;;;;;5074688;28;20397;-69
2021/12/20 09:36:32;;;;;;;30.53;8.43;;;;;;;;;;5056213;28;20287;-69
2021/12/20 09:38:59;;;;;;;35.10;8.17;;;;;;;;;;5068757;28;20313;-69
2021/12/20 09:44:08;;;;;;;42.83;8.73;;;;;;;;;;5070548;28;20290;-69
2021/12/20 09:46:34;;;;;;;28.87;7.50;;;;;;;;;;5070442;28;20318;-69
2021/12/20 09:49:02;;;;;;;46.57;8.83;;;;;;;;;;5088955;28;21093;-69
2021/12/20 09:51:28;;;;;;;35.13;8.17;;;;;;;;;;5070976;28;20285;-68
2021/12/20 09:53:57;;;;;;;31.67;7.40;;;;;;;;;;5088611;28;20317;-69
2021/12/20 09:56:24;;;;;;;42.03;7.50;;;;;;;;;;5088474;28;20293;-68
2021/12/20 09:58:52;;;;;;;30.17;9.47;;;;;;;;;;5088278;28;20306;-68
2021/12/20 10:01:19;;;;;;;80.40;14.90;;;;;;;;;;5073188;28;20302;-69
2021/12/20 10:03:45;;;;;;;40.53;10.33;;;;;;;;;;5056797;28;20324;-69
2021/12/20 10:06:11;;;;;;;24.97;7.83;;;;;;;;;;5053574;28;20812;-68
2021/12/20 10:08:48;;;;;;;36.10;10.73;;;;;;;;;;5083892;28;20298;-68
2021/12/20 10:11:19;;;;;;;40.20;8.40;;;;;;;;;;5081105;28;20294;-69
2021/12/20 10:13:46;;;;;;;36.37;8.57;;;;;;;;;;5065633;28;20321;-68
2021/12/20 10:16:22;;;;;;;40.87;9.03;;;;;;;;;;5068325;28;20349;-68
2021/12/20 10:18:48;;;;;;;33.00;9.07;;;;;;;;;;5070077;28;20055;-69
2021/12/20 10:21:15;;;;;;;31.97;7.70;;;;;;;;;;5056903;28;20036;-68
2021/12/20 10:23:44;;;;;;;41.17;8.17;;;;;;;;;;5063816;28;20076;-68
2021/12/20 10:26:13;;;;;;;26.67;6.03;;;;;;;;;;5075340;28;20125;-68
2021/12/20 10:28:39;;;;;;;29.60;5.67;;;;;;;;;;5082557;28;20047;-68
2021/12/20 10:31:07;;;;;;;18.83;5.30;;;;;;;;;;5079896;28;20058;-68
2021/12/20 10:33:33;;;;;;;19.80;5.27;;;;;;;;;;5086468;28;20577;-68
2021/12/20 10:36:01;;;;;;;27.00;6.93;;;;;;;;;;5084786;28;20040;-68
2021/12/20 10:38:31;;;;;;;22.93;7.47;;;;;;;;;;5069686;28;20040;-68
2021/12/20 10:41:05;;;;;;;24.93;4.50;;;;;;;;;;5068365;28;20052;-68
2021/12/20 10:43:33;;;;;;;;;;;;;;;;;;5075832;28;20049;-68
2021/12/20 10:45:59;;;;;;;27.20;5.40;;;;;;;;;;5093869;28;20148;-68
2021/12/20 10:48:33;;;;;;;23.17;5.27;;;;;;;;;;5090806;28;20044;-68
2021/12/20 10:50:59;;;;;;;27.73;7.03;;;;;;;;;;5089178;28;20050;-69
2021/12/20 10:53:26;;;;;;;37.40;12.23;;;;;;;;;;5091014;28;20589;-68
2021/12/20 10:55:59;;;;;;;16.13;9.43;;;;;;;;;;5070145;28;20040;-69
2021/12/20 10:58:29;;;;;;;21.83;14.05;;;;;;;;;;5052355;28;20040;-68
2021/12/20 11:01:02;;;;;;;21.20;8.03;;;;;;;;;;5067991;28;20039;-69
2021/12/20 11:03:35;;;;;;;;;;;;;;;;;;5089935;28;20055;-69
2021/12/20 11:11:22;;;;;;;19.17;6.50;;;;;;;;;;5086088;28;20044;-68
2021/12/20 11:13:48;;;;;;;19.10;4.67;;;;;;;;;;5066524;28;20123;-68
2021/12/20 11:16:29;;;;;;;20.53;4.87;;;;;;;;;;5068992;28;20079;-68
2021/12/20 11:19:08;;;;;;;16.00;4.13;;;;;;;;;;5086611;28;20509;-68
2021/12/20 11:21:34;;;;;;;18.43;3.93;;;;;;;;;;5064487;28;20048;-68
2021/12/20 11:24:01;;;;;;;16.53;4.63;;;;;;;;;;5067438;28;20040;-68
2021/12/20 11:26:28;;;;;;;14.63;3.90;;;;;;;;;;5070218;28;20145;-68
2021/12/20 11:28:55;;;;;;;14.60;4.73;;;;;;;;;;5091113;28;20044;-67
2021/12/20 11:31:21;;;;;;;12.43;4.37;;;;;;;;;;5085230;28;20072;-68
2021/12/20 11:33:48;;;;;;;18.17;5.20;;;;;;;;;;5088354;28;20048;-68
2021/12/20 11:36:14;;;;;;;13.57;3.70;;;;;;;;;;5080662;28;20451;-69
2021/12/20 11:38:40;;;;;;;11.73;3.23;;;;;;;;;;5093897;28;20123;-69
2021/12/20 11:41:07;;;;;;;11.30;3.10;;;;;;;;;;5056064;28;20044;-69
2021/12/20 11:43:33;;;;;;;7.93;2.77;;;;;;;;;;5070662;28;20056;-69
2021/12/20 11:46:00;;;;;;;9.23;2.60;;;;;;;;;;5090664;28;20043;-70
2021/12/20 11:48:29;;;;;;;9.57;2.70;;;;;;;;;;5092078;28;20059;-70
2021/12/20 11:50:56;;;;;;;13.53;4.07;;;;;;;;;;5083457;28;20044;-69
2021/12/20 11:53:22;;;;;;;11.33;2.67;;;;;;;;;;5083535;28;20044;-69
2021/12/20 11:55:57;;;;;;;9.87;2.93;;;;;;;;;;5053476;28;20054;-69
2021/12/20 11:58:24;;;;;;;9.93;3.03;;;;;;;;;;5084248;28;20044;-70
2021/12/20 12:00:50;;;;;;;9.97;2.87;;;;;;;;;;5069735;28;20044;-69
2021/12/20 12:03:18;;;;;;;10.77;3.07;;;;;;;;;;5068052;28;20090;-70
2021/12/20 12:06:01;;;;;;;10.30;2.87;;;;;;;;;;5088942;28;20043;-69
2021/12/20 12:08:30;;;;;;;6.28;2.70;;;;;;;;;;5083551;28;20047;-70
2021/12/20 12:10:59;;;;;;;6.53;2.60;;;;;;;;;;5062315;28;20056;-70
2021/12/20 12:13:27;;;;;;;9.57;2.57;;;;;;;;;;5066403;28;20153;-70
2021/12/20 12:16:00;;;;;;;9.90;3.23;;;;;;;;;;5070860;28;20052;-70
2021/12/20 12:18:43;;;;;;;6.82;2.13;;;;;;;;;;5084316;28;20390;-70
2021/12/20 12:21:29;;;;;;;7.97;2.45;;;;;;;;;;5072221;28;20059;-70
2021/12/20 12:23:55;;;;;;;7.50;1.90;;;;;;;;;;5071389;28;20481;-69
2021/12/20 12:26:30;;;;;;;11.07;2.30;;;;;;;;;;5084494;28;20050;-70
2021/12/20 12:28:57;;;;;;;5.27;1.53;;;;;;;;;;5072361;28;20771;-69
2021/12/20 12:31:23;;;;;;;8.47;1.90;;;;;;;;;;5070846;28;20058;-70
2021/12/20 12:34:05;;;;;;;5.03;1.30;;;;;;;;;;5071022;28;20048;-69
2021/12/20 12:36:38;;;;;;;6.77;2.23;;;;;;;;;;5071605;28;20175;-70
2021/12/20 12:39:08;;;;;;;7.55;1.95;;;;;;;;;;5086301;28;20078;-68
2021/12/20 12:41:48;;;;;;;4.73;1.70;;;;;;;;;;5051000;28;20048;-69
2021/12/20 12:44:17;;;;;;;6.13;2.10;;;;;;;;;;5090570;28;20179;-69
2021/12/20 12:46:49;;;;;;;7.27;1.40;;;;;;;;;;5071581;28;20430;-68
2021/12/20 12:49:21;;;;;;;7.10;1.50;;;;;;;;;;5067059;28;20048;-69
2021/12/20 12:52:08;;;;;;;3.83;0.83;;;;;;;;;;5062734;28;20050;-69
2021/12/20 12:54:39;;;;;;;3.37;0.90;;;;;;;;;;5071554;28;20084;-69
2021/12/20 12:57:08;;;;;;;3.33;1.17;;;;;;;;;;5055336;28;20082;-68
2021/12/20 12:59:34;;;;;;;6.77;1.33;;;;;;;;;;5071845;28;20604;-69
2021/12/20 13:02:08;;;;;;;3.67;1.20;;;;;;;;;;5071312;28;20505;-69
2021/12/20 13:04:47;;;;;;;4.53;1.20;;;;;;;;;;5071417;28;20405;-69
2021/12/20 13:07:32;;;;;;;3.47;0.97;;;;;;;;;;5071939;28;20056;-69
2021/12/20 13:10:00;;;;;;;3.57;1.23;;;;;;;;;;5071209;28;20079;-69
2021/12/20 13:15:05;;;;;;;6.10;1.10;;;;;;;;;;5072081;28;20409;-69
2021/12/20 13:17:36;;;;;;;6.60;1.40;;;;;;;;;;5089279;28;20063;-69
2021/12/20 13:23:13;;;;;;;2.73;0.90;;;;;;;;;;5069464;28;20048;-69
2021/12/20 13:25:57;;;;;;;3.13;1.03;;;;;;;;;;5058934;28;20056;-69
2021/12/20 13:28:26;;;;;;;5.10;1.30;;;;;;;;;;5040110;28;20059;-69
2021/12/20 13:30:52;;;;;;;4.10;1.30;;;;;;;;;;5069699;28;20043;-69
2021/12/20 13:33:20;;;;;;;2.70;1.00;;;;;;;;;;5069083;28;20049;-69
2021/12/20 13:35:46;;;;;;;3.73;1.20;;;;;;;;;;5068622;28;20049;-69
2021/12/20 13:38:20;;;;;;;5.70;1.67;;;;;;;;;;5087485;28;20048;-69
2021/12/20 13:40:46;;;;;;;4.30;1.30;;;;;;;;;;5070857;28;20051;-69
2021/12/20 13:43:13;;;;;;;3.73;1.30;;;;;;;;;;5089211;28;20103;-69
2021/12/20 13:45:39;;;;;;;4.70;1.50;;;;;;;;;;5071096;28;20044;-69
2021/12/20 13:48:08;;;;;;;4.50;1.03;;;;;;;;;;5070672;28;20092;-69
2021/12/20 13:50:35;;;;;;;4.47;1.13;;;;;;;;;;5070912;28;20058;-70
2021/12/20 13:53:01;;;;;;;3.87;1.20;;;;;;;;;;5082637;28;20073;-69
2021/12/20 13:55:27;;;;;;;3.93;1.10;;;;;;;;;;5070680;28;20044;-70
2021/12/20 13:57:53;;;;;;;5.60;1.17;;;;;;;;;;5070857;28;20052;-69
2021/12/20 14:00:19;;;;;;;4.93;1.40;;;;;;;;;;5089065;28;20050;-69
2021/12/20 14:02:46;;;;;;;8.57;1.90;;;;;;;;;;5088559;28;20051;-69
2021/12/20 14:05:17;;;;;;;4.40;1.47;;;;;;;;;;5088419;28;20157;-69
2021/12/20 14:07:45;;;;;;;6.87;1.43;;;;;;;;;;5088695;28;20048;-69
2021/12/20 14:10:11;;;;;;;7.43;2.10;;;;;;;;;;5070888;28;20059;-69
2021/12/20 14:12:39;;;;;;;10.83;2.13;;;;;;;;;;5087759;28;20061;-69
2021/12/20 14:15:07;;;;;;;5.90;1.97;;;;;;;;;;5070720;28;20044;-69
2021/12/20 14:18:02;;;;;;;3.73;1.27;;;;;;;;;;5070360;28;20044;-69
2021/12/20 14:20:45;;;;;;;5.30;1.87;;;;;;;;;;5052714;28;20655;-69
2021/12/20 14:23:17;;;;;;;5.07;1.83;;;;;;;;;;5081466;28;20051;-69
2021/12/20 14:25:44;;;;;;;5.20;1.77;;;;;;;;;;5078520;28;20056;-69
2021/12/20 14:28:12;;;;;;;5.90;2.10;;;;;;;;;;5068454;28;20525;-69
2021/12/20 14:30:46;;;;;;;5.07;1.80;;;;;;;;;;5068241;28;20040;-69
2021/12/20 14:33:20;;;;;;;6.90;1.90;;;;;;;;;;5050259;28;20509;-69
2021/12/20 14:35:53;;;;;;;11.33;2.33;;;;;;;;;;5074085;28;20048;-69
2021/12/20 14:38:27;;;;;;;11.45;3.05;;;;;;;;;;5088232;28;20715;-69
2021/12/20 14:40:53;;;;;;;11.20;2.53;;;;;;;;;;5088435;28;20495;-69
2021/12/20 14:43:21;;;;;;;9.17;2.83;;;;;;;;;;5070341;28;20052;-69
2021/12/20 14:45:52;;;;;;;7.13;2.33;;;;;;;;;;5088521;28;20098;-69
2021/12/20 14:48:32;;;;;;;6.83;1.87;;;;;;;;;;5053477;28;20048;-69
2021/12/20 14:50:58;;;;;;;10.03;2.63;;;;;;;;;;5078132;28;20051;-68
2021/12/20 14:53:26;;;;;;;10.70;2.40;;;;;;;;;;5050100;28;20044;-68
2021/12/20 14:55:53;;;;;;;9.37;2.10;;;;;;;;;;5033155;28;20044;-68
2021/12/20 14:58:20;;;;;;;8.53;2.70;;;;;;;;;;5053358;28;20044;-68
2021/12/20 15:00:47;;;;;;;10.17;3.30;;;;;;;;;;5070176;28;20072;-68
2021/12/20 15:03:16;;;;;;;14.03;4.90;;;;;;;;;;5053554;28;20048;-68
2021/12/20 15:05:45;;;;;;;12.20;3.50;;;;;;;;;;5053221;28;20093;-68